createdAt,value
2023-04-16T00:00:50.767Z,45.99
2023-04-16T00:03:17.667Z,45.55
2023-04-16T00:05:44.454Z,45.82
2023-04-16T00:08:11.349Z,44.27
2023-04-16T00:10:38.408Z,45.14
2023-04-16T00:13:05.143Z,45.05
2023-04-16T00:15:31.911Z,44.45
2023-04-16T00:17:58.728Z,43.57
2023-04-16T00:20:25.405Z,43.24
2023-04-16T00:22:52.162Z,45.51
2023-04-16T00:25:18.743Z,45.39
2023-04-16T00:27:45.471Z,45.79
2023-04-16T00:30:12.422Z,45.90
2023-04-16T00:32:39.327Z,45.96
2023-04-16T00:35:06.656Z,45.98
2023-04-16T00:37:33.434Z,45.79
2023-04-16T00:40:01.167Z,45.03
2023-04-16T00:42:28.161Z,46.08
2023-04-16T00:44:55.315Z,46.68
2023-04-16T00:47:22.415Z,45.80
2023-04-16T00:49:49.367Z,46.21
2023-04-16T00:52:16.313Z,46.34
2023-04-16T00:54:43.326Z,46.35
2023-04-16T00:57:10.805Z,46.75
2023-04-16T00:59:37.731Z,46.59
2023-04-16T01:02:04.751Z,46.90
2023-04-16T01:04:31.804Z,46.60
2023-04-16T01:06:58.569Z,46.63
2023-04-16T01:09:25.260Z,46.95
2023-04-16T01:11:52.113Z,47.07
2023-04-16T01:14:18.800Z,46.60
2023-04-16T01:16:45.602Z,47.24
2023-04-16T01:19:22.521Z,46.23
2023-04-16T01:21:51.715Z,47.67
2023-04-16T01:24:18.383Z,47.56
2023-04-16T01:26:45.220Z,47.82
2023-04-16T01:29:11.985Z,47.88
2023-04-16T01:31:38.811Z,47.68
2023-04-16T01:34:34.778Z,48.17
2023-04-16T01:37:01.608Z,48.88
2023-04-16T01:39:28.273Z,48.77
2023-04-16T01:41:57.182Z,48.84
2023-04-16T01:44:24.264Z,47.92
2023-04-16T01:46:51.396Z,48.07
2023-04-16T01:49:18.240Z,48.16
2023-04-16T01:51:45.100Z,48.50
2023-04-16T01:54:11.823Z,48.56
2023-04-16T01:56:39.722Z,48.98
2023-04-16T01:59:06.692Z,48.39
2023-04-16T02:01:38.922Z,47.63
2023-04-16T02:04:06.689Z,48.90
2023-04-16T02:06:33.492Z,49.03
2023-04-16T02:09:01.882Z,49.37
2023-04-16T02:11:28.733Z,49.55
2023-04-16T02:13:56.184Z,49.94
2023-04-16T02:16:22.972Z,49.66
2023-04-16T02:18:57.228Z,48.59
2023-04-16T02:21:26.011Z,48.98
2023-04-16T02:23:53.316Z,48.82
2023-04-16T02:26:26.659Z,49.33
2023-04-16T02:28:55.571Z,49.28
2023-04-16T02:31:28.707Z,50.08
2023-04-16T02:33:57.390Z,49.47
2023-04-16T02:36:24.456Z,49.53
2023-04-16T02:38:51.581Z,49.92
2023-04-16T02:41:18.213Z,49.02
2023-04-16T02:43:45.086Z,50.08
2023-04-16T02:46:11.958Z,49.72
2023-04-16T02:48:39.292Z,49.71
2023-04-16T02:51:06.126Z,49.92
2023-04-16T02:53:33.105Z,50.53
2023-04-16T02:55:59.794Z,50.25
2023-04-16T02:58:26.787Z,50.42
2023-04-16T03:00:54.379Z,49.85
2023-04-16T03:03:21.938Z,50.29
2023-04-16T03:05:48.821Z,50.23
2023-04-16T03:08:16.621Z,49.63
2023-04-16T03:10:43.322Z,49.19
2023-04-16T03:13:10.064Z,49.19
2023-04-16T03:15:36.898Z,49.76
2023-04-16T03:18:03.828Z,49.30
2023-04-16T03:20:30.582Z,49.00
2023-04-16T03:22:57.384Z,49.19
2023-04-16T03:25:24.076Z,50.12
2023-04-16T03:27:51.432Z,50.20
2023-04-16T03:30:18.611Z,50.14
2023-04-16T03:32:45.560Z,50.34
2023-04-16T03:35:12.736Z,50.49
2023-04-16T03:37:39.688Z,50.96
2023-04-16T03:40:07.356Z,50.98
2023-04-16T03:42:34.497Z,50.58
2023-04-16T03:45:02.404Z,51.75
2023-04-16T03:47:29.656Z,52.62
2023-04-16T03:49:59.803Z,51.58
2023-04-16T03:52:28.230Z,52.31
2023-04-16T03:54:56.956Z,52.16
2023-04-16T03:57:28.713Z,52.54
2023-04-16T04:00:01.206Z,53.39
2023-04-16T04:02:46.016Z,52.59
2023-04-16T04:05:18.673Z,53.06
2023-04-16T04:07:46.800Z,53.50
2023-04-16T04:10:14.618Z,52.77
2023-04-16T04:12:42.107Z,52.92
2023-04-16T04:15:09.642Z,52.47
2023-04-16T04:17:36.373Z,51.97
2023-04-16T04:20:03.729Z,52.87
2023-04-16T04:22:31.637Z,52.78
2023-04-16T04:24:58.353Z,52.70
2023-04-16T04:27:27.414Z,52.19
2023-04-16T04:29:54.525Z,52.37
2023-04-16T04:32:22.254Z,53.02
2023-04-16T04:34:49.362Z,52.20
2023-04-16T04:37:16.119Z,52.02
2023-04-16T04:39:43.512Z,52.01
2023-04-16T04:42:12.502Z,52.22
2023-04-16T04:44:39.768Z,53.04
2023-04-16T04:47:08.081Z,53.13
2023-04-16T04:49:35.448Z,53.83
2023-04-16T04:52:03.329Z,53.69
2023-04-16T04:54:32.660Z,53.69
2023-04-16T04:56:59.634Z,54.07
2023-04-16T04:59:26.383Z,54.17
2023-04-16T05:01:53.627Z,53.95
2023-04-16T05:04:20.376Z,54.29
2023-04-16T05:06:47.172Z,55.03
2023-04-16T05:09:13.832Z,55.09
2023-04-16T05:11:42.267Z,54.60
2023-04-16T05:14:09.129Z,53.79
2023-04-16T05:16:37.151Z,54.90
2023-04-16T05:19:04.211Z,54.56
2023-04-16T05:21:31.575Z,54.78
2023-04-16T05:23:58.911Z,54.27
2023-04-16T05:26:25.621Z,54.41
2023-04-16T05:28:52.315Z,54.51
2023-04-16T05:31:19.129Z,55.31
2023-04-16T05:33:45.862Z,55.29
2023-04-16T05:36:12.651Z,55.71
2023-04-16T05:38:39.246Z,56.63
2023-04-16T05:41:05.974Z,57.43
2023-04-16T05:43:32.814Z,57.44
2023-04-16T05:45:59.543Z,57.81
2023-04-16T05:48:26.244Z,57.90
2023-04-16T05:50:53.914Z,57.47
2023-04-16T05:53:20.639Z,56.17
2023-04-16T05:55:47.435Z,56.39
2023-04-16T05:58:14.122Z,55.47
2023-04-16T06:00:41.008Z,53.07
2023-04-16T06:03:07.830Z,54.13
2023-04-16T06:05:35.002Z,52.70
2023-04-16T06:08:01.674Z,52.85
2023-04-16T06:10:28.477Z,52.80
2023-04-16T06:12:55.261Z,52.00
2023-04-16T06:15:22.113Z,51.93
2023-04-16T06:17:49.823Z,52.52
2023-04-16T06:20:16.878Z,53.34
2023-04-16T06:22:43.606Z,53.92
2023-04-16T06:25:10.248Z,52.76
2023-04-16T06:27:37.411Z,53.31
2023-04-16T06:30:04.727Z,52.78
2023-04-16T06:32:31.456Z,52.58
2023-04-16T06:34:58.851Z,52.19
2023-04-16T06:37:25.569Z,51.65
2023-04-16T06:39:52.502Z,51.85
2023-04-16T06:42:20.036Z,51.67
2023-04-16T06:44:46.926Z,51.68
2023-04-16T06:47:13.510Z,50.71
2023-04-16T06:49:40.419Z,50.59
2023-04-16T06:52:07.487Z,51.83
2023-04-16T06:54:34.334Z,51.64
2023-04-16T06:57:02.309Z,51.63
2023-04-16T06:59:29.392Z,50.34
2023-04-16T07:01:56.666Z,50.46
2023-04-16T07:04:23.775Z,50.69
2023-04-16T07:06:50.485Z,51.28
2023-04-16T07:09:18.026Z,51.00
2023-04-16T07:11:44.830Z,49.95
2023-04-16T07:14:11.624Z,50.39
2023-04-16T07:16:38.380Z,49.67
2023-04-16T07:19:05.093Z,49.26
2023-04-16T07:21:32.137Z,49.62
2023-04-16T07:23:58.832Z,49.62
2023-04-16T07:26:25.974Z,49.14
2023-04-16T07:28:52.822Z,48.13
2023-04-16T07:31:19.523Z,48.05
2023-04-16T07:33:46.439Z,48.24
2023-04-16T07:36:13.086Z,48.55
2023-04-16T07:38:39.836Z,47.94
2023-04-16T07:41:06.530Z,47.37
2023-04-16T07:43:33.331Z,47.68
2023-04-16T07:46:00.175Z,46.77
2023-04-16T07:48:26.988Z,45.80
2023-04-16T07:50:53.608Z,46.32
2023-04-16T07:53:20.470Z,46.94
2023-04-16T07:55:47.225Z,46.43
2023-04-16T07:58:14.064Z,44.62
2023-04-16T08:00:40.822Z,45.97
2023-04-16T08:03:07.702Z,46.07
2023-04-16T08:05:34.701Z,46.17
2023-04-16T08:08:01.362Z,44.34
2023-04-16T08:10:28.426Z,45.84
2023-04-16T08:12:55.287Z,44.74
2023-04-16T08:15:21.937Z,43.19
2023-04-16T08:17:48.775Z,44.15
2023-04-16T08:20:18.514Z,43.96
2023-04-16T08:22:46.678Z,44.30
2023-04-16T08:25:13.439Z,45.28
2023-04-16T08:27:40.205Z,44.25
2023-04-16T08:30:07.924Z,44.38
2023-04-16T08:32:35.119Z,44.05
2023-04-16T08:35:01.975Z,42.03
2023-04-16T08:37:29.061Z,37.95
2023-04-16T08:39:55.994Z,41.62
2023-04-16T08:42:32.896Z,44.14
2023-04-16T08:45:15.617Z,44.07
2023-04-16T08:47:46.785Z,43.76
2023-04-16T08:50:17.957Z,45.53
2023-04-16T08:52:59.302Z,40.18
2023-04-16T08:55:50.501Z,40.80
2023-04-16T08:58:22.773Z,42.30
2023-04-16T09:00:49.849Z,41.04
2023-04-16T09:03:16.986Z,38.96
2023-04-16T09:05:44.229Z,37.37
2023-04-16T09:08:11.145Z,39.39
2023-04-16T09:10:38.172Z,39.56
2023-04-16T09:13:05.094Z,40.85
2023-04-16T09:15:34.654Z,41.73
2023-04-16T09:18:02.016Z,41.77
2023-04-16T09:20:28.675Z,40.53
2023-04-16T09:22:57.094Z,41.64
2023-04-16T09:25:25.142Z,38.28
2023-04-16T09:27:52.147Z,38.38
2023-04-16T09:30:21.904Z,39.17
2023-04-16T09:32:49.816Z,39.73
2023-04-16T09:35:20.561Z,36.52
2023-04-16T09:38:05.311Z,37.69
2023-04-16T09:40:32.080Z,38.69
2023-04-16T09:43:00.560Z,38.00
2023-04-16T09:45:32.046Z,38.31
2023-04-16T09:48:04.991Z,37.95
2023-04-16T09:50:31.840Z,39.88
2023-04-16T09:53:02.572Z,39.63
2023-04-16T09:55:29.653Z,40.56
2023-04-16T09:58:01.148Z,36.97
2023-04-16T10:00:30.066Z,40.75
2023-04-16T10:03:07.224Z,37.73
2023-04-16T10:05:34.852Z,41.64
2023-04-16T10:08:02.173Z,37.37
2023-04-16T10:10:30.568Z,39.17
2023-04-16T10:12:57.933Z,39.58
2023-04-16T10:15:25.220Z,40.11
2023-04-16T10:17:53.891Z,39.72
2023-04-16T10:20:21.298Z,39.72
2023-04-16T10:22:48.875Z,37.03
2023-04-16T10:25:16.804Z,37.31
2023-04-16T10:27:44.480Z,32.96
2023-04-16T10:30:13.101Z,36.36
2023-04-16T10:32:41.331Z,39.08
2023-04-16T10:35:08.533Z,36.87
2023-04-16T10:37:37.527Z,37.88
2023-04-16T10:40:26.280Z,39.41
2023-04-16T10:42:57.929Z,36.79
2023-04-16T10:45:32.856Z,38.55
2023-04-16T10:47:59.755Z,37.59
2023-04-16T10:50:34.941Z,37.73
2023-04-16T10:53:24.169Z,38.30
2023-04-16T10:55:58.428Z,36.33
2023-04-16T10:58:32.328Z,34.25
2023-04-16T11:01:08.115Z,34.10
2023-04-16T11:03:34.943Z,37.35
2023-04-16T11:06:12.979Z,35.97
2023-04-16T11:08:53.255Z,34.40
2023-04-16T11:11:22.252Z,38.33
2023-04-16T11:13:49.029Z,36.31
2023-04-16T11:16:16.943Z,31.87
2023-04-16T11:18:50.775Z,31.75
2023-04-16T11:21:18.504Z,31.72
2023-04-16T11:23:53.278Z,32.99
2023-04-16T11:26:25.124Z,33.12
2023-04-16T11:28:53.434Z,33.31
2023-04-16T11:31:20.651Z,33.34
2023-04-16T11:33:47.332Z,34.50
2023-04-16T11:36:14.018Z,33.84
2023-04-16T11:38:43.952Z,33.31
2023-04-16T11:41:11.223Z,33.75
2023-04-16T11:43:38.004Z,31.07
2023-04-16T11:46:20.068Z,32.14
2023-04-16T11:48:53.522Z,32.21
2023-04-16T11:51:20.707Z,32.52
2023-04-16T11:53:52.891Z,31.78
2023-04-16T11:56:30.717Z,31.78
2023-04-16T11:59:16.609Z,32.37
2023-04-16T12:01:46.448Z,29.95
2023-04-16T12:04:15.910Z,29.11
2023-04-16T12:07:11.358Z,28.90
2023-04-16T12:09:40.975Z,29.74
2023-04-16T12:12:27.791Z,27.55
2023-04-16T12:14:56.843Z,28.26
2023-04-16T12:17:24.157Z,28.21
2023-04-16T12:19:59.041Z,28.88
2023-04-16T12:22:36.057Z,28.17
2023-04-16T12:25:10.671Z,27.99
2023-04-16T12:27:51.463Z,27.14
2023-04-16T12:30:22.576Z,28.02
2023-04-16T12:32:51.685Z,29.87
2023-04-16T12:35:32.895Z,29.68
2023-04-16T12:38:00.506Z,29.28
2023-04-16T12:40:27.453Z,29.84
2023-04-16T12:42:55.045Z,29.18
2023-04-16T12:45:22.220Z,29.73
2023-04-16T12:47:50.526Z,29.15
2023-04-16T12:50:17.934Z,29.68
2023-04-16T12:52:44.949Z,30.19
2023-04-16T12:55:12.427Z,30.07
2023-04-16T12:57:39.448Z,29.31
2023-04-16T13:00:06.747Z,27.79
2023-04-16T13:02:34.237Z,28.22
2023-04-16T13:05:01.488Z,28.91
2023-04-16T13:07:28.997Z,27.92
2023-04-16T13:09:55.709Z,28.17
2023-04-16T13:12:22.456Z,28.09
2023-04-16T13:14:49.106Z,28.97
2023-04-16T13:17:15.790Z,29.22
2023-04-16T13:19:42.452Z,28.44
2023-04-16T13:22:09.324Z,27.88
2023-04-16T13:24:35.994Z,28.71
2023-04-16T13:27:02.802Z,28.15
2023-04-16T13:29:30.478Z,28.19
2023-04-16T13:31:57.856Z,27.40
2023-04-16T13:34:24.721Z,27.50
2023-04-16T13:36:51.421Z,27.94
2023-04-16T13:39:18.568Z,27.72
2023-04-16T13:41:45.692Z,27.19
2023-04-16T13:44:12.281Z,27.78
2023-04-16T13:46:39.036Z,28.46
2023-04-16T13:49:05.812Z,28.20
2023-04-16T13:51:32.828Z,27.41
2023-04-16T13:53:59.528Z,26.75
2023-04-16T13:56:26.569Z,27.42
2023-04-16T13:58:53.517Z,27.25
2023-04-16T14:01:20.610Z,26.78
2023-04-16T14:03:47.459Z,27.63
2023-04-16T14:06:15.076Z,27.40
2023-04-16T14:08:41.710Z,26.68
2023-04-16T14:11:09.174Z,26.83
2023-04-16T14:13:36.364Z,26.77
2023-04-16T14:16:03.491Z,26.83
2023-04-16T14:18:30.486Z,25.80
2023-04-16T14:20:57.540Z,26.22
2023-04-16T14:23:24.191Z,26.63
2023-04-16T14:25:51.006Z,26.00
2023-04-16T14:28:17.734Z,26.08
2023-04-16T14:30:44.541Z,25.94
2023-04-16T14:33:11.516Z,27.10
2023-04-16T14:35:38.278Z,26.85
2023-04-16T14:38:06.563Z,26.55
2023-04-16T14:40:34.852Z,25.78
2023-04-16T14:43:01.482Z,25.33
2023-04-16T14:45:30.028Z,25.53
2023-04-16T14:47:57.134Z,26.51
2023-04-16T14:50:23.929Z,26.63
2023-04-16T14:52:51.031Z,26.44
2023-04-16T14:55:17.968Z,28.18
2023-04-16T14:57:44.614Z,26.96
2023-04-16T15:00:13.327Z,27.68
2023-04-16T15:02:40.165Z,27.94
2023-04-16T15:05:09.842Z,27.40
2023-04-16T15:07:37.100Z,27.60
2023-04-16T15:10:04.520Z,28.21
2023-04-16T15:12:31.375Z,28.04
2023-04-16T15:14:59.813Z,27.91
2023-04-16T15:17:26.810Z,27.38
2023-04-16T15:19:53.589Z,27.33
2023-04-16T15:22:20.271Z,27.06
2023-04-16T15:24:47.056Z,27.11
2023-04-16T15:27:14.701Z,27.67
2023-04-16T15:29:41.639Z,28.00
2023-04-16T15:32:08.375Z,26.95
2023-04-16T15:34:35.354Z,27.08
2023-04-16T15:37:02.314Z,28.19
2023-04-16T15:39:29.531Z,27.75
2023-04-16T15:42:00.831Z,27.02
2023-04-16T15:44:31.177Z,26.44
2023-04-16T15:46:58.076Z,27.28
2023-04-16T15:49:25.444Z,27.49
2023-04-16T15:51:52.934Z,27.61
2023-04-16T15:54:19.672Z,28.37
2023-04-16T15:56:47.083Z,28.11
2023-04-16T15:59:13.846Z,27.97
2023-04-16T16:01:40.902Z,28.00
2023-04-16T16:04:08.066Z,27.68
2023-04-16T16:06:35.317Z,26.31
2023-04-16T16:09:02.077Z,26.93
2023-04-16T16:11:28.706Z,27.50
2023-04-16T16:13:55.514Z,28.26
2023-04-16T16:16:22.316Z,27.81
2023-04-16T16:18:48.993Z,27.60
2023-04-16T16:21:16.139Z,28.09
2023-04-16T16:23:42.937Z,27.74
2023-04-16T16:26:09.683Z,28.84
2023-04-16T16:28:39.296Z,27.65
2023-04-16T16:31:07.170Z,29.52
2023-04-16T16:33:33.894Z,28.32
2023-04-16T16:36:00.797Z,28.11
2023-04-16T16:38:27.897Z,28.64
2023-04-16T16:40:54.698Z,28.50
2023-04-16T16:43:21.738Z,28.55
2023-04-16T16:45:48.992Z,28.36
2023-04-16T16:48:15.566Z,28.58
2023-04-16T16:50:42.683Z,29.94
2023-04-16T16:53:09.553Z,31.00
2023-04-16T16:55:36.505Z,30.95
2023-04-16T16:58:04.510Z,28.46
2023-04-16T17:00:31.233Z,28.96
2023-04-16T17:02:58.296Z,29.91
2023-04-16T17:05:25.097Z,28.92
2023-04-16T17:07:51.686Z,27.53
2023-04-16T17:10:21.302Z,28.08
2023-04-16T17:12:49.526Z,28.26
2023-04-16T17:15:18.582Z,27.73
2023-04-16T17:17:47.838Z,28.85
2023-04-16T17:20:14.708Z,28.47
2023-04-16T17:22:42.256Z,28.46
2023-04-16T17:25:09.901Z,29.03
2023-04-16T17:27:36.890Z,28.22
2023-04-16T17:30:05.555Z,29.12
2023-04-16T17:32:32.973Z,29.49
2023-04-16T17:35:01.261Z,28.83
2023-04-16T17:37:28.655Z,29.07
2023-04-16T17:39:55.513Z,28.44
2023-04-16T17:42:22.388Z,29.42
2023-04-16T17:44:49.112Z,29.88
2023-04-16T17:47:15.936Z,29.80
2023-04-16T17:49:43.066Z,29.62
2023-04-16T17:52:09.911Z,29.80
2023-04-16T17:54:36.554Z,29.44
2023-04-16T17:57:03.608Z,28.77
2023-04-16T17:59:30.451Z,30.30
2023-04-16T18:01:57.432Z,30.63
2023-04-16T18:04:24.451Z,30.57
2023-04-16T18:06:51.358Z,30.29
2023-04-16T18:09:19.338Z,30.43
2023-04-16T18:11:46.184Z,30.68
2023-04-16T18:14:16.743Z,30.70
2023-04-16T18:16:43.810Z,30.65
2023-04-16T18:19:10.512Z,30.11
2023-04-16T18:21:37.341Z,29.96
2023-04-16T18:24:04.195Z,30.33
2023-04-16T18:26:33.257Z,29.94
2023-04-16T18:29:03.071Z,30.61
2023-04-16T18:31:30.123Z,31.15
2023-04-16T18:33:58.315Z,31.32
2023-04-16T18:36:27.058Z,30.62
2023-04-16T18:39:00.962Z,30.75
2023-04-16T18:41:29.950Z,31.13
2023-04-16T18:43:57.364Z,31.03
2023-04-16T18:46:24.556Z,31.54
2023-04-16T18:48:51.634Z,30.82
2023-04-16T18:51:18.608Z,29.99
2023-04-16T18:53:45.923Z,31.37
2023-04-16T18:56:13.257Z,32.07
2023-04-16T18:58:40.159Z,32.18
2023-04-16T19:01:11.255Z,31.99
2023-04-16T19:03:38.989Z,32.09
2023-04-16T19:06:06.665Z,31.87
2023-04-16T19:08:33.652Z,32.41
2023-04-16T19:11:00.626Z,32.68
2023-04-16T19:13:27.472Z,31.77
2023-04-16T19:16:01.666Z,31.63
2023-04-16T19:18:28.760Z,32.13
2023-04-16T19:21:02.035Z,32.26
2023-04-16T19:23:29.361Z,32.98
2023-04-16T19:25:56.773Z,33.13
2023-04-16T19:28:24.482Z,33.27
2023-04-16T19:30:52.447Z,33.64
2023-04-16T19:33:19.932Z,33.55
2023-04-16T19:35:47.444Z,32.95
2023-04-16T19:38:14.554Z,33.48
2023-04-16T19:40:45.036Z,35.11
2023-04-16T19:43:12.458Z,35.27
2023-04-16T19:45:43.976Z,34.81
2023-04-16T19:48:11.444Z,34.65
2023-04-16T19:50:42.617Z,34.95
2023-04-16T19:53:11.179Z,34.93
2023-04-16T19:55:41.915Z,34.52
2023-04-16T19:58:09.726Z,33.85
2023-04-16T20:00:38.735Z,34.77
2023-04-16T20:03:06.018Z,35.09
2023-04-16T20:05:32.997Z,35.18
2023-04-16T20:08:00.311Z,36.19
2023-04-16T20:10:28.048Z,36.45
2023-04-16T20:12:54.875Z,35.97
2023-04-16T20:15:21.841Z,36.44
2023-04-16T20:17:49.240Z,35.71
2023-04-16T20:20:16.434Z,37.52
2023-04-16T20:22:43.985Z,38.18
2023-04-16T20:25:11.623Z,36.54
2023-04-16T20:27:38.473Z,38.99
2023-04-16T20:30:06.562Z,37.36
2023-04-16T20:32:33.755Z,38.38
2023-04-16T20:35:01.990Z,38.31
2023-04-16T20:37:29.279Z,37.45
2023-04-16T20:39:57.313Z,38.48
2023-04-16T20:42:26.538Z,38.44
2023-04-16T20:44:56.643Z,37.58
2023-04-16T20:47:24.003Z,39.13
2023-04-16T20:49:52.953Z,39.04
2023-04-16T20:52:20.522Z,39.28
2023-04-16T20:54:47.899Z,39.53
2023-04-16T20:57:14.968Z,38.58
2023-04-16T20:59:41.718Z,38.39
2023-04-16T21:02:08.670Z,38.55
2023-04-16T21:04:35.564Z,38.60
2023-04-16T21:07:05.552Z,38.90
2023-04-16T21:09:36.374Z,39.42
2023-04-16T21:12:03.320Z,38.25
2023-04-16T21:14:29.897Z,39.16
2023-04-16T21:16:56.599Z,40.48
2023-04-16T21:19:23.267Z,39.53
2023-04-16T21:21:50.080Z,40.00
2023-04-16T21:24:17.217Z,39.77
2023-04-16T21:26:43.965Z,40.02
2023-04-16T21:29:11.158Z,40.43
2023-04-16T21:31:38.200Z,40.06
2023-04-16T21:34:04.886Z,40.43
2023-04-16T21:36:33.598Z,39.39
2023-04-16T21:39:00.387Z,40.82
2023-04-16T21:41:27.165Z,40.58
2023-04-16T21:43:53.912Z,39.53
2023-04-16T21:46:21.394Z,39.32
2023-04-16T21:48:48.544Z,39.55
2023-04-16T21:51:15.775Z,40.17
2023-04-16T21:53:42.487Z,41.20
2023-04-16T21:56:09.294Z,41.12
2023-04-16T21:58:35.912Z,39.92
2023-04-16T22:01:02.749Z,39.82
2023-04-16T22:03:31.060Z,40.68
2023-04-16T22:06:01.587Z,41.35
2023-04-16T22:08:29.658Z,42.94
2023-04-16T22:11:01.708Z,42.32
2023-04-16T22:13:30.140Z,41.30
2023-04-16T22:15:57.741Z,40.41
2023-04-16T22:18:25.738Z,40.53
2023-04-16T22:20:56.197Z,40.00
2023-04-16T22:23:24.226Z,40.09
2023-04-16T22:25:53.305Z,40.55
2023-04-16T22:28:20.049Z,40.11
2023-04-16T22:30:46.701Z,41.08
2023-04-16T22:33:13.465Z,39.90
2023-04-16T22:35:40.703Z,41.34
2023-04-16T22:38:07.880Z,40.37
2023-04-16T22:40:34.600Z,40.30
2023-04-16T22:43:01.413Z,41.27
2023-04-16T22:45:28.414Z,41.60
2023-04-16T22:47:55.172Z,41.09
2023-04-16T22:50:23.235Z,41.68
2023-04-16T22:52:49.994Z,41.18
2023-04-16T22:55:16.862Z,41.41
2023-04-16T22:57:43.668Z,42.07
2023-04-16T23:00:17.762Z,42.18
2023-04-16T23:02:45.352Z,42.69
2023-04-16T23:05:12.277Z,43.83
2023-04-16T23:07:39.116Z,43.20
2023-04-16T23:10:08.316Z,43.80
2023-04-16T23:12:37.322Z,43.38
2023-04-16T23:15:06.333Z,43.94
2023-04-16T23:17:34.071Z,43.15
2023-04-16T23:20:00.935Z,43.63
2023-04-16T23:22:27.874Z,43.27
2023-04-16T23:24:54.793Z,42.38
2023-04-16T23:27:21.703Z,42.78
2023-04-16T23:29:48.415Z,43.14
2023-04-16T23:32:15.163Z,43.56
2023-04-16T23:34:42.059Z,44.69
2023-04-16T23:37:09.011Z,44.89
2023-04-16T23:39:35.893Z,44.50
2023-04-16T23:42:03.108Z,44.44
2023-04-16T23:44:29.758Z,43.98
2023-04-16T23:46:57.296Z,44.64
2023-04-16T23:49:24.128Z,45.05
2023-04-16T23:51:50.878Z,44.30
2023-04-16T23:54:17.819Z,44.58
2023-04-16T23:56:44.560Z,44.53
2023-04-16T23:59:11.490Z,44.29
